sensor_id;sensor_type;location;lat;lon;timestamp;temperature;humidity
48836;DHT22;62581;47.342;7.908;2024-01-16T00:01:32;0.10;99.90
48836;DHT22;62581;47.342;7.908;2024-01-16T00:04:01;0.10;99.90
48836;DHT22;62581;47.342;7.908;2024-01-16T00:06:28;0.00;99.90
48836;DHT22;62581;47.342;7.908;2024-01-16T00:08:55;-0.10;99.90
48836;DHT22;62581;47.342;7.908;2024-01-16T00:11:22;0.00;99.90
48836;DHT22;62581;47.342;7.908;2024-01-16T00:13:48;0.00;99.90
48836;DHT22;62581;47.342;7.908;2024-01-16T00:16:15;0.00;99.90
48836;DHT22;62581;47.342;7.908;2024-01-16T00:18:42;0.10;99.90
48836;DHT22;62581;47.342;7.908;2024-01-16T00:21:10;0.10;99.90
48836;DHT22;62581;47.342;7.908;2024-01-16T00:23:37;-0.10;99.90
48836;DHT22;62581;47.342;7.908;2024-01-16T00:26:04;-0.10;99.90
48836;DHT22;62581;47.342;7.908;2024-01-16T00:28:31;-0.20;99.90
48836;DHT22;62581;47.342;7.908;2024-01-16T00:30:58;-0.20;99.90
48836;DHT22;62581;47.342;7.908;2024-01-16T00:33:25;-0.30;99.90
48836;DHT22;62581;47.342;7.908;2024-01-16T00:35:53;-0.10;99.90
48836;DHT22;62581;47.342;7.908;2024-01-16T00:38:21;-0.40;99.90
48836;DHT22;62581;47.342;7.908;2024-01-16T00:40:48;-0.40;99.90
48836;DHT22;62581;47.342;7.908;2024-01-16T00:43:15;-0.40;99.90
48836;DHT22;62581;47.342;7.908;2024-01-16T00:45:42;-0.50;99.90
48836;DHT22;62581;47.342;7.908;2024-01-16T00:48:09;-0.60;99.90
48836;DHT22;62581;47.342;7.908;2024-01-16T00:50:39;-0.60;99.90
48836;DHT22;62581;47.342;7.908;2024-01-16T00:53:06;-0.60;99.90
48836;DHT22;62581;47.342;7.908;2024-01-16T00:55:34;-0.60;99.90
48836;DHT22;62581;47.342;7.908;2024-01-16T00:58:01;-0.60;99.90
48836;DHT22;62581;47.342;7.908;2024-01-16T01:00:28;-0.60;99.90
48836;DHT22;62581;47.342;7.908;2024-01-16T01:02:56;-0.60;99.90
48836;DHT22;62581;47.342;7.908;2024-01-16T01:05:24;-0.60;99.90
48836;DHT22;62581;47.342;7.908;2024-01-16T01:07:54;-0.50;99.90
48836;DHT22;62581;47.342;7.908;2024-01-16T01:10:21;-0.50;99.90
48836;DHT22;62581;47.342;7.908;2024-01-16T01:12:50;-0.50;99.90
48836;DHT22;62581;47.342;7.908;2024-01-16T01:15:17;-0.60;99.90
48836;DHT22;62581;47.342;7.908;2024-01-16T01:17:44;-0.60;99.90
48836;DHT22;62581;47.342;7.908;2024-01-16T01:20:12;-0.60;99.90
48836;DHT22;62581;47.342;7.908;2024-01-16T01:22:39;-0.80;99.90
48836;DHT22;62581;47.342;7.908;2024-01-16T01:25:07;-0.80;99.90
48836;DHT22;62581;47.342;7.908;2024-01-16T01:27:36;-0.80;99.90
48836;DHT22;62581;47.342;7.908;2024-01-16T01:30:05;-0.80;99.90
48836;DHT22;62581;47.342;7.908;2024-01-16T01:32:32;-0.80;99.90
48836;DHT22;62581;47.342;7.908;2024-01-16T01:34:59;-0.90;99.90
48836;DHT22;62581;47.342;7.908;2024-01-16T01:37:26;-1.00;99.90
48836;DHT22;62581;47.342;7.908;2024-01-16T01:39:52;-1.00;99.90
48836;DHT22;62581;47.342;7.908;2024-01-16T01:42:19;-1.00;99.90
48836;DHT22;62581;47.342;7.908;2024-01-16T01:44:46;-0.90;99.90
48836;DHT22;62581;47.342;7.908;2024-01-16T01:47:15;-0.90;99.90
48836;DHT22;62581;47.342;7.908;2024-01-16T01:49:41;-1.00;99.90
48836;DHT22;62581;47.342;7.908;2024-01-16T01:52:09;-1.10;99.90
48836;DHT22;62581;47.342;7.908;2024-01-16T01:54:37;-1.10;99.90
48836;DHT22;62581;47.342;7.908;2024-01-16T01:57:04;-1.20;99.90
48836;DHT22;62581;47.342;7.908;2024-01-16T01:59:31;-1.20;99.90
48836;DHT22;62581;47.342;7.908;2024-01-16T02:01:59;-1.20;99.90
48836;DHT22;62581;47.342;7.908;2024-01-16T02:04:29;-1.20;99.90
48836;DHT22;62581;47.342;7.908;2024-01-16T02:06:58;-1.10;99.90
48836;DHT22;62581;47.342;7.908;2024-01-16T02:09:25;-1.10;99.90
48836;DHT22;62581;47.342;7.908;2024-01-16T02:11:51;-1.20;99.90
48836;DHT22;62581;47.342;7.908;2024-01-16T02:14:18;-1.10;99.90
48836;DHT22;62581;47.342;7.908;2024-01-16T02:16:45;-1.30;99.90
48836;DHT22;62581;47.342;7.908;2024-01-16T02:19:12;-1.20;99.90
48836;DHT22;62581;47.342;7.908;2024-01-16T02:21:43;-1.10;99.90
48836;DHT22;62581;47.342;7.908;2024-01-16T02:24:14;-1.20;99.90
48836;DHT22;62581;47.342;7.908;2024-01-16T02:26:42;-1.10;99.90
48836;DHT22;62581;47.342;7.908;2024-01-16T02:29:09;-1.00;99.90
48836;DHT22;62581;47.342;7.908;2024-01-16T02:31:36;-0.90;99.90
48836;DHT22;62581;47.342;7.908;2024-01-16T02:34:03;-0.80;99.90
48836;DHT22;62581;47.342;7.908;2024-01-16T02:36:30;-0.70;99.90
48836;DHT22;62581;47.342;7.908;2024-01-16T02:38:57;-0.60;99.90
48836;DHT22;62581;47.342;7.908;2024-01-16T02:41:26;-0.60;99.90
48836;DHT22;62581;47.342;7.908;2024-01-16T02:43:53;-0.50;99.90
48836;DHT22;62581;47.342;7.908;2024-01-16T02:46:20;-0.50;99.90
48836;DHT22;62581;47.342;7.908;2024-01-16T02:48:47;-0.40;99.90
48836;DHT22;62581;47.342;7.908;2024-01-16T02:51:14;-0.40;99.90
48836;DHT22;62581;47.342;7.908;2024-01-16T02:53:41;-0.40;99.90
48836;DHT22;62581;47.342;7.908;2024-01-16T02:56:08;-0.30;99.90
48836;DHT22;62581;47.342;7.908;2024-01-16T02:58:36;-0.40;99.90
48836;DHT22;62581;47.342;7.908;2024-01-16T03:01:03;-0.40;99.90
48836;DHT22;62581;47.342;7.908;2024-01-16T03:03:30;-0.50;99.90
48836;DHT22;62581;47.342;7.908;2024-01-16T03:05:57;-0.60;99.90
48836;DHT22;62581;47.342;7.908;2024-01-16T03:08:25;-0.60;99.90
48836;DHT22;62581;47.342;7.908;2024-01-16T03:10:52;-0.70;99.90
48836;DHT22;62581;47.342;7.908;2024-01-16T03:13:19;-0.80;99.90
48836;DHT22;62581;47.342;7.908;2024-01-16T03:15:47;-0.90;99.90
48836;DHT22;62581;47.342;7.908;2024-01-16T03:18:14;-1.00;99.90
48836;DHT22;62581;47.342;7.908;2024-01-16T03:20:42;-1.00;99.90
48836;DHT22;62581;47.342;7.908;2024-01-16T03:23:09;-1.20;99.90
48836;DHT22;62581;47.342;7.908;2024-01-16T03:25:36;-1.20;99.90
48836;DHT22;62581;47.342;7.908;2024-01-16T03:28:04;-1.30;99.90
48836;DHT22;62581;47.342;7.908;2024-01-16T03:30:33;-1.30;99.90
48836;DHT22;62581;47.342;7.908;2024-01-16T03:33:03;-1.30;99.90
48836;DHT22;62581;47.342;7.908;2024-01-16T03:35:30;-1.40;99.90
48836;DHT22;62581;47.342;7.908;2024-01-16T03:37:57;-1.40;99.90
48836;DHT22;62581;47.342;7.908;2024-01-16T03:40:24;-1.40;99.90
48836;DHT22;62581;47.342;7.908;2024-01-16T03:42:51;-1.40;99.90
48836;DHT22;62581;47.342;7.908;2024-01-16T03:45:18;-1.40;99.90
48836;DHT22;62581;47.342;7.908;2024-01-16T03:47:45;-1.40;99.90
48836;DHT22;62581;47.342;7.908;2024-01-16T03:50:13;-1.30;99.90
48836;DHT22;62581;47.342;7.908;2024-01-16T03:52:40;-1.50;99.90
48836;DHT22;62581;47.342;7.908;2024-01-16T03:55:08;-1.50;99.90
48836;DHT22;62581;47.342;7.908;2024-01-16T03:57:35;-1.50;99.90
48836;DHT22;62581;47.342;7.908;2024-01-16T04:00:02;-1.50;99.90
48836;DHT22;62581;47.342;7.908;2024-01-16T04:02:31;-1.50;99.90
48836;DHT22;62581;47.342;7.908;2024-01-16T04:04:58;-1.60;99.90
48836;DHT22;62581;47.342;7.908;2024-01-16T04:07:26;-1.60;99.90
48836;DHT22;62581;47.342;7.908;2024-01-16T04:09:53;-1.60;99.90
48836;DHT22;62581;47.342;7.908;2024-01-16T04:12:20;-1.60;99.90
48836;DHT22;62581;47.342;7.908;2024-01-16T04:14:47;-1.60;99.90
48836;DHT22;62581;47.342;7.908;2024-01-16T04:17:14;-1.60;99.90
48836;DHT22;62581;47.342;7.908;2024-01-16T04:19:41;-1.60;99.90
48836;DHT22;62581;47.342;7.908;2024-01-16T04:22:07;-1.60;99.90
48836;DHT22;62581;47.342;7.908;2024-01-16T04:24:36;-1.60;99.90
48836;DHT22;62581;47.342;7.908;2024-01-16T04:27:03;-1.50;99.90
48836;DHT22;62581;47.342;7.908;2024-01-16T04:29:30;-1.50;99.90
48836;DHT22;62581;47.342;7.908;2024-01-16T04:31:57;-1.50;99.90
48836;DHT22;62581;47.342;7.908;2024-01-16T04:34:24;-1.40;99.90
48836;DHT22;62581;47.342;7.908;2024-01-16T04:36:51;-1.50;99.90
48836;DHT22;62581;47.342;7.908;2024-01-16T04:39:18;-1.50;99.90
48836;DHT22;62581;47.342;7.908;2024-01-16T04:41:49;-1.50;99.90
48836;DHT22;62581;47.342;7.908;2024-01-16T04:44:16;-1.50;99.90
48836;DHT22;62581;47.342;7.908;2024-01-16T04:46:42;-1.40;99.90
48836;DHT22;62581;47.342;7.908;2024-01-16T04:49:10;-1.50;99.90
48836;DHT22;62581;47.342;7.908;2024-01-16T04:51:37;-1.50;99.90
48836;DHT22;62581;47.342;7.908;2024-01-16T04:54:04;-1.60;99.90
48836;DHT22;62581;47.342;7.908;2024-01-16T04:56:31;-1.70;99.90
48836;DHT22;62581;47.342;7.908;2024-01-16T04:59:00;-1.70;99.90
48836;DHT22;62581;47.342;7.908;2024-01-16T05:01:27;-1.60;99.90
48836;DHT22;62581;47.342;7.908;2024-01-16T05:03:53;-1.60;99.90
48836;DHT22;62581;47.342;7.908;2024-01-16T05:06:21;-1.50;99.90
48836;DHT22;62581;47.342;7.908;2024-01-16T05:08:48;-1.60;99.90
48836;DHT22;62581;47.342;7.908;2024-01-16T05:11:15;-1.60;99.90
48836;DHT22;62581;47.342;7.908;2024-01-16T05:13:42;-1.50;99.90
48836;DHT22;62581;47.342;7.908;2024-01-16T05:16:10;-1.70;99.90
48836;DHT22;62581;47.342;7.908;2024-01-16T05:18:37;-1.70;99.90
48836;DHT22;62581;47.342;7.908;2024-01-16T05:21:04;-1.70;99.90
48836;DHT22;62581;47.342;7.908;2024-01-16T05:23:32;-1.80;99.90
48836;DHT22;62581;47.342;7.908;2024-01-16T05:26:00;-1.80;99.90
48836;DHT22;62581;47.342;7.908;2024-01-16T05:28:27;-2.00;99.90
48836;DHT22;62581;47.342;7.908;2024-01-16T05:30:55;-2.00;99.90
48836;DHT22;62581;47.342;7.908;2024-01-16T05:33:23;-1.90;99.90
48836;DHT22;62581;47.342;7.908;2024-01-16T05:35:50;-1.90;99.90
48836;DHT22;62581;47.342;7.908;2024-01-16T05:38:17;-1.90;99.90
48836;DHT22;62581;47.342;7.908;2024-01-16T05:40:44;-1.90;99.90
48836;DHT22;62581;47.342;7.908;2024-01-16T05:43:11;-2.00;99.90
48836;DHT22;62581;47.342;7.908;2024-01-16T05:45:38;-1.90;99.90
48836;DHT22;62581;47.342;7.908;2024-01-16T05:48:05;-2.00;99.90
48836;DHT22;62581;47.342;7.908;2024-01-16T05:50:36;-1.90;99.90
48836;DHT22;62581;47.342;7.908;2024-01-16T05:53:03;-2.00;99.90
48836;DHT22;62581;47.342;7.908;2024-01-16T05:55:30;-2.00;99.90
48836;DHT22;62581;47.342;7.908;2024-01-16T05:57:58;-2.00;99.90
48836;DHT22;62581;47.342;7.908;2024-01-16T06:00:26;-2.00;99.90
48836;DHT22;62581;47.342;7.908;2024-01-16T06:02:53;-2.00;99.90
48836;DHT22;62581;47.342;7.908;2024-01-16T06:05:20;-2.00;99.90
48836;DHT22;62581;47.342;7.908;2024-01-16T06:07:48;-2.00;99.90
48836;DHT22;62581;47.342;7.908;2024-01-16T06:10:15;-2.00;99.90
48836;DHT22;62581;47.342;7.908;2024-01-16T06:12:42;-2.10;99.90
48836;DHT22;62581;47.342;7.908;2024-01-16T06:15:09;-2.10;99.90
48836;DHT22;62581;47.342;7.908;2024-01-16T06:17:37;-2.10;99.90
48836;DHT22;62581;47.342;7.908;2024-01-16T06:20:04;-2.10;99.90
48836;DHT22;62581;47.342;7.908;2024-01-16T06:22:32;-2.10;99.90
48836;DHT22;62581;47.342;7.908;2024-01-16T06:25:00;-2.10;99.90
48836;DHT22;62581;47.342;7.908;2024-01-16T06:27:27;-2.10;99.90
48836;DHT22;62581;47.342;7.908;2024-01-16T06:29:54;-2.10;99.90
48836;DHT22;62581;47.342;7.908;2024-01-16T06:32:21;-2.10;99.90
48836;DHT22;62581;47.342;7.908;2024-01-16T06:34:48;-2.10;99.90
48836;DHT22;62581;47.342;7.908;2024-01-16T06:37:15;-2.20;99.90
48836;DHT22;62581;47.342;7.908;2024-01-16T06:39:42;-2.20;99.90
48836;DHT22;62581;47.342;7.908;2024-01-16T06:42:10;-2.10;99.90
48836;DHT22;62581;47.342;7.908;2024-01-16T06:44:37;-2.20;99.90
48836;DHT22;62581;47.342;7.908;2024-01-16T06:47:04;-2.30;99.90
48836;DHT22;62581;47.342;7.908;2024-01-16T06:49:31;-2.30;99.90
48836;DHT22;62581;47.342;7.908;2024-01-16T06:51:58;-2.30;99.90
48836;DHT22;62581;47.342;7.908;2024-01-16T06:54:25;-2.30;99.90
48836;DHT22;62581;47.342;7.908;2024-01-16T06:56:52;-2.30;99.90
48836;DHT22;62581;47.342;7.908;2024-01-16T06:59:20;-2.30;99.90
48836;DHT22;62581;47.342;7.908;2024-01-16T07:01:48;-2.40;99.90
48836;DHT22;62581;47.342;7.908;2024-01-16T07:04:15;-2.40;99.90
48836;DHT22;62581;47.342;7.908;2024-01-16T07:06:42;-2.30;99.90
48836;DHT22;62581;47.342;7.908;2024-01-16T07:09:09;-2.20;99.90
48836;DHT22;62581;47.342;7.908;2024-01-16T07:11:37;-2.20;99.90
48836;DHT22;62581;47.342;7.908;2024-01-16T07:14:10;-2.30;99.90
48836;DHT22;62581;47.342;7.908;2024-01-16T07:16:41;-2.30;99.90
48836;DHT22;62581;47.342;7.908;2024-01-16T07:19:08;-2.40;99.90
48836;DHT22;62581;47.342;7.908;2024-01-16T07:21:35;-2.40;99.90
48836;DHT22;62581;47.342;7.908;2024-01-16T07:24:02;-2.40;99.90
48836;DHT22;62581;47.342;7.908;2024-01-16T07:26:29;-2.50;99.90
48836;DHT22;62581;47.342;7.908;2024-01-16T07:28:56;-2.40;99.90
48836;DHT22;62581;47.342;7.908;2024-01-16T07:31:24;-2.50;99.90
48836;DHT22;62581;47.342;7.908;2024-01-16T07:33:53;-2.50;99.90
48836;DHT22;62581;47.342;7.908;2024-01-16T07:36:20;-2.50;99.90
48836;DHT22;62581;47.342;7.908;2024-01-16T07:38:47;-2.50;99.90
48836;DHT22;62581;47.342;7.908;2024-01-16T07:41:14;-2.50;99.90
48836;DHT22;62581;47.342;7.908;2024-01-16T07:43:41;-2.50;99.90
48836;DHT22;62581;47.342;7.908;2024-01-16T07:46:08;-2.50;99.90
48836;DHT22;62581;47.342;7.908;2024-01-16T07:48:35;-2.50;99.90
48836;DHT22;62581;47.342;7.908;2024-01-16T07:51:04;-2.40;99.90
48836;DHT22;62581;47.342;7.908;2024-01-16T07:53:31;-2.40;99.90
48836;DHT22;62581;47.342;7.908;2024-01-16T07:55:58;-2.40;99.90
48836;DHT22;62581;47.342;7.908;2024-01-16T07:58:25;-2.40;99.90
48836;DHT22;62581;47.342;7.908;2024-01-16T08:00:52;-2.40;99.90
48836;DHT22;62581;47.342;7.908;2024-01-16T08:03:19;-2.20;99.90
48836;DHT22;62581;47.342;7.908;2024-01-16T08:05:45;-2.40;99.90
48836;DHT22;62581;47.342;7.908;2024-01-16T08:08:14;-2.40;99.90
48836;DHT22;62581;47.342;7.908;2024-01-16T08:10:41;-2.30;99.90
48836;DHT22;62581;47.342;7.908;2024-01-16T08:13:08;-2.30;99.90
48836;DHT22;62581;47.342;7.908;2024-01-16T08:15:36;-2.40;99.90
48836;DHT22;62581;47.342;7.908;2024-01-16T08:18:04;-2.30;99.90
48836;DHT22;62581;47.342;7.908;2024-01-16T08:20:31;-2.30;99.90
48836;DHT22;62581;47.342;7.908;2024-01-16T08:22:58;-2.30;99.90
48836;DHT22;62581;47.342;7.908;2024-01-16T08:25:26;-2.20;99.90
48836;DHT22;62581;47.342;7.908;2024-01-16T08:27:53;-2.10;99.90
48836;DHT22;62581;47.342;7.908;2024-01-16T08:30:20;-2.10;99.90
48836;DHT22;62581;47.342;7.908;2024-01-16T08:32:47;-2.10;99.90
48836;DHT22;62581;47.342;7.908;2024-01-16T08:35:14;-1.90;99.90
48836;DHT22;62581;47.342;7.908;2024-01-16T08:37:41;-2.00;99.90
48836;DHT22;62581;47.342;7.908;2024-01-16T08:40:08;-2.00;99.90
48836;DHT22;62581;47.342;7.908;2024-01-16T08:42:38;-1.90;99.90
48836;DHT22;62581;47.342;7.908;2024-01-16T08:45:06;-1.90;99.90
48836;DHT22;62581;47.342;7.908;2024-01-16T08:47:34;-1.80;99.90
48836;DHT22;62581;47.342;7.908;2024-01-16T08:50:01;-1.80;99.90
48836;DHT22;62581;47.342;7.908;2024-01-16T08:52:28;-1.70;99.90
48836;DHT22;62581;47.342;7.908;2024-01-16T08:54:56;-1.70;99.90
48836;DHT22;62581;47.342;7.908;2024-01-16T08:57:24;-1.60;99.90
48836;DHT22;62581;47.342;7.908;2024-01-16T08:59:52;-1.50;99.90
48836;DHT22;62581;47.342;7.908;2024-01-16T09:02:19;-1.40;99.90
48836;DHT22;62581;47.342;7.908;2024-01-16T09:04:47;-1.40;99.90
48836;DHT22;62581;47.342;7.908;2024-01-16T09:07:15;-1.30;99.90
48836;DHT22;62581;47.342;7.908;2024-01-16T09:09:44;-1.20;99.90
48836;DHT22;62581;47.342;7.908;2024-01-16T09:12:11;-1.10;99.90
48836;DHT22;62581;47.342;7.908;2024-01-16T09:14:38;-1.00;99.90
48836;DHT22;62581;47.342;7.908;2024-01-16T09:17:06;-0.90;99.90
48836;DHT22;62581;47.342;7.908;2024-01-16T09:19:33;-0.80;99.90
48836;DHT22;62581;47.342;7.908;2024-01-16T09:22:00;-0.80;99.90
48836;DHT22;62581;47.342;7.908;2024-01-16T09:24:28;-0.80;99.90
48836;DHT22;62581;47.342;7.908;2024-01-16T09:26:55;-0.80;99.90
48836;DHT22;62581;47.342;7.908;2024-01-16T09:29:23;-0.80;99.90
48836;DHT22;62581;47.342;7.908;2024-01-16T09:31:51;-0.80;99.90
48836;DHT22;62581;47.342;7.908;2024-01-16T09:34:19;-0.70;99.90
48836;DHT22;62581;47.342;7.908;2024-01-16T09:36:46;-0.60;99.90
48836;DHT22;62581;47.342;7.908;2024-01-16T09:39:13;-0.40;99.90
48836;DHT22;62581;47.342;7.908;2024-01-16T09:41:41;-0.20;99.90
48836;DHT22;62581;47.342;7.908;2024-01-16T09:44:09;0.00;99.90
48836;DHT22;62581;47.342;7.908;2024-01-16T09:46:38;0.30;99.90
48836;DHT22;62581;47.342;7.908;2024-01-16T09:49:06;0.60;99.90
48836;DHT22;62581;47.342;7.908;2024-01-16T09:51:38;0.80;99.90
48836;DHT22;62581;47.342;7.908;2024-01-16T09:54:05;1.10;99.90
48836;DHT22;62581;47.342;7.908;2024-01-16T09:56:37;1.30;99.90
48836;DHT22;62581;47.342;7.908;2024-01-16T09:59:06;1.50;99.90
48836;DHT22;62581;47.342;7.908;2024-01-16T10:01:34;1.70;99.90
48836;DHT22;62581;47.342;7.908;2024-01-16T10:04:02;1.70;99.90
48836;DHT22;62581;47.342;7.908;2024-01-16T10:06:30;1.80;99.90
48836;DHT22;62581;47.342;7.908;2024-01-16T10:08:59;2.00;99.90
48836;DHT22;62581;47.342;7.908;2024-01-16T10:11:26;1.90;99.90
48836;DHT22;62581;47.342;7.908;2024-01-16T10:13:53;2.00;99.90
48836;DHT22;62581;47.342;7.908;2024-01-16T10:16:20;2.10;99.90
48836;DHT22;62581;47.342;7.908;2024-01-16T10:18:48;2.10;99.90
48836;DHT22;62581;47.342;7.908;2024-01-16T10:21:20;2.20;99.90
48836;DHT22;62581;47.342;7.908;2024-01-16T10:23:49;2.30;99.90
48836;DHT22;62581;47.342;7.908;2024-01-16T10:26:21;2.30;99.90
48836;DHT22;62581;47.342;7.908;2024-01-16T10:28:48;2.20;99.90
48836;DHT22;62581;47.342;7.908;2024-01-16T10:31:14;2.30;99.90
48836;DHT22;62581;47.342;7.908;2024-01-16T10:33:41;2.30;99.90
48836;DHT22;62581;47.342;7.908;2024-01-16T10:36:11;2.30;99.90
48836;DHT22;62581;47.342;7.908;2024-01-16T10:38:38;2.40;99.90
48836;DHT22;62581;47.342;7.908;2024-01-16T10:41:15;2.50;99.90
48836;DHT22;62581;47.342;7.908;2024-01-16T10:43:44;2.50;99.90
48836;DHT22;62581;47.342;7.908;2024-01-16T10:46:13;2.40;99.90
48836;DHT22;62581;47.342;7.908;2024-01-16T10:48:42;2.30;99.90
48836;DHT22;62581;47.342;7.908;2024-01-16T10:51:09;2.30;99.90
48836;DHT22;62581;47.342;7.908;2024-01-16T10:53:41;2.30;99.90
48836;DHT22;62581;47.342;7.908;2024-01-16T10:56:10;2.30;99.90
48836;DHT22;62581;47.342;7.908;2024-01-16T10:58:40;2.30;99.90
48836;DHT22;62581;47.342;7.908;2024-01-16T11:01:11;2.30;99.90
48836;DHT22;62581;47.342;7.908;2024-01-16T11:03:40;2.60;99.90
48836;DHT22;62581;47.342;7.908;2024-01-16T11:06:10;2.70;99.90
48836;DHT22;62581;47.342;7.908;2024-01-16T11:08:39;2.80;99.90
48836;DHT22;62581;47.342;7.908;2024-01-16T11:11:07;3.00;99.90
48836;DHT22;62581;47.342;7.908;2024-01-16T11:13:35;3.10;99.90
48836;DHT22;62581;47.342;7.908;2024-01-16T11:16:03;3.10;99.90
48836;DHT22;62581;47.342;7.908;2024-01-16T11:18:33;3.20;99.90
48836;DHT22;62581;47.342;7.908;2024-01-16T11:21:01;3.40;99.90
48836;DHT22;62581;47.342;7.908;2024-01-16T11:23:29;3.50;99.90
48836;DHT22;62581;47.342;7.908;2024-01-16T11:25:56;3.60;99.90
48836;DHT22;62581;47.342;7.908;2024-01-16T11:28:27;3.70;99.90
48836;DHT22;62581;47.342;7.908;2024-01-16T11:30:55;3.80;99.90
48836;DHT22;62581;47.342;7.908;2024-01-16T11:33:43;3.90;99.90
48836;DHT22;62581;47.342;7.908;2024-01-16T11:36:43;3.90;99.90
48836;DHT22;62581;47.342;7.908;2024-01-16T11:39:20;4.00;99.90
48836;DHT22;62581;47.342;7.908;2024-01-16T11:41:55;4.50;99.90
48836;DHT22;62581;47.342;7.908;2024-01-16T11:44:42;4.90;99.90
48836;DHT22;62581;47.342;7.908;2024-01-16T11:47:16;5.10;99.90
48836;DHT22;62581;47.342;7.908;2024-01-16T11:49:45;5.30;99.90
48836;DHT22;62581;47.342;7.908;2024-01-16T11:52:12;5.50;99.90
48836;DHT22;62581;47.342;7.908;2024-01-16T11:54:39;5.70;99.90
48836;DHT22;62581;47.342;7.908;2024-01-16T12:00:04;5.40;99.90
48836;DHT22;62581;47.342;7.908;2024-01-16T12:02:53;5.50;99.90
48836;DHT22;62581;47.342;7.908;2024-01-16T12:05:22;5.50;99.90
48836;DHT22;62581;47.342;7.908;2024-01-16T12:07:51;5.20;99.90
48836;DHT22;62581;47.342;7.908;2024-01-16T12:10:20;5.30;99.90
48836;DHT22;62581;47.342;7.908;2024-01-16T12:12:49;5.30;99.90
48836;DHT22;62581;47.342;7.908;2024-01-16T12:15:17;5.20;99.90
48836;DHT22;62581;47.342;7.908;2024-01-16T12:17:55;5.20;99.90
48836;DHT22;62581;47.342;7.908;2024-01-16T12:20:26;5.70;99.90
48836;DHT22;62581;47.342;7.908;2024-01-16T12:22:57;6.00;99.90
48836;DHT22;62581;47.342;7.908;2024-01-16T12:25:25;6.20;99.90
48836;DHT22;62581;47.342;7.908;2024-01-16T12:27:56;6.00;99.90
48836;DHT22;62581;47.342;7.908;2024-01-16T12:30:25;6.00;99.90
48836;DHT22;62581;47.342;7.908;2024-01-16T12:33:03;5.90;99.90
48836;DHT22;62581;47.342;7.908;2024-01-16T12:35:31;6.10;99.90
48836;DHT22;62581;47.342;7.908;2024-01-16T12:37:59;6.10;99.90
48836;DHT22;62581;47.342;7.908;2024-01-16T12:40:26;5.60;99.90
48836;DHT22;62581;47.342;7.908;2024-01-16T12:42:54;5.40;99.90
48836;DHT22;62581;47.342;7.908;2024-01-16T12:45:22;5.20;99.90
48836;DHT22;62581;47.342;7.908;2024-01-16T12:47:53;5.10;99.90
48836;DHT22;62581;47.342;7.908;2024-01-16T12:50:21;5.20;99.90
48836;DHT22;62581;47.342;7.908;2024-01-16T12:52:50;5.20;99.90
48836;DHT22;62581;47.342;7.908;2024-01-16T12:55:26;4.80;99.90
48836;DHT22;62581;47.342;7.908;2024-01-16T12:58:12;5.20;99.90
48836;DHT22;62581;47.342;7.908;2024-01-16T13:00:38;5.40;99.90
48836;DHT22;62581;47.342;7.908;2024-01-16T13:03:06;5.40;99.90
48836;DHT22;62581;47.342;7.908;2024-01-16T13:05:33;5.40;99.90
48836;DHT22;62581;47.342;7.908;2024-01-16T13:08:02;5.30;99.90
48836;DHT22;62581;47.342;7.908;2024-01-16T13:10:29;5.30;99.90
48836;DHT22;62581;47.342;7.908;2024-01-16T13:13:13;5.70;99.90
48836;DHT22;62581;47.342;7.908;2024-01-16T13:15:40;7.00;99.90
48836;DHT22;62581;47.342;7.908;2024-01-16T13:18:17;7.90;99.90
48836;DHT22;62581;47.342;7.908;2024-01-16T13:20:46;7.50;99.90
48836;DHT22;62581;47.342;7.908;2024-01-16T13:23:14;7.30;99.90
48836;DHT22;62581;47.342;7.908;2024-01-16T13:25:42;7.40;99.90
48836;DHT22;62581;47.342;7.908;2024-01-16T13:28:10;7.10;99.90
48836;DHT22;62581;47.342;7.908;2024-01-16T13:30:37;6.70;99.90
48836;DHT22;62581;47.342;7.908;2024-01-16T13:33:04;6.40;99.90
48836;DHT22;62581;47.342;7.908;2024-01-16T13:35:31;6.10;99.90
48836;DHT22;62581;47.342;7.908;2024-01-16T13:37:58;5.80;99.90
48836;DHT22;62581;47.342;7.908;2024-01-16T13:40:27;5.70;99.90
48836;DHT22;62581;47.342;7.908;2024-01-16T13:42:53;5.70;99.90
48836;DHT22;62581;47.342;7.908;2024-01-16T13:45:20;5.70;99.90
48836;DHT22;62581;47.342;7.908;2024-01-16T13:47:47;5.70;99.90
48836;DHT22;62581;47.342;7.908;2024-01-16T13:50:14;6.10;99.90
48836;DHT22;62581;47.342;7.908;2024-01-16T13:52:43;7.00;99.90
48836;DHT22;62581;47.342;7.908;2024-01-16T13:55:10;7.90;99.90
48836;DHT22;62581;47.342;7.908;2024-01-16T13:57:39;8.10;99.90
48836;DHT22;62581;47.342;7.908;2024-01-16T14:00:07;8.70;99.90
48836;DHT22;62581;47.342;7.908;2024-01-16T14:02:38;9.00;99.90
48836;DHT22;62581;47.342;7.908;2024-01-16T14:05:07;9.50;99.90
48836;DHT22;62581;47.342;7.908;2024-01-16T14:07:36;9.70;99.90
48836;DHT22;62581;47.342;7.908;2024-01-16T14:10:04;9.80;99.90
48836;DHT22;62581;47.342;7.908;2024-01-16T14:12:33;9.90;99.90
48836;DHT22;62581;47.342;7.908;2024-01-16T14:15:02;10.40;99.90
48836;DHT22;62581;47.342;7.908;2024-01-16T14:17:34;10.80;99.90
48836;DHT22;62581;47.342;7.908;2024-01-16T14:20:02;10.80;99.90
48836;DHT22;62581;47.342;7.908;2024-01-16T14:22:30;11.00;99.90
48836;DHT22;62581;47.342;7.908;2024-01-16T14:24:57;11.30;99.90
48836;DHT22;62581;47.342;7.908;2024-01-16T14:27:24;11.60;99.90
48836;DHT22;62581;47.342;7.908;2024-01-16T14:29:51;12.00;99.90
48836;DHT22;62581;47.342;7.908;2024-01-16T14:32:21;12.20;99.90
48836;DHT22;62581;47.342;7.908;2024-01-16T14:34:48;12.30;99.90
48836;DHT22;62581;47.342;7.908;2024-01-16T14:37:16;12.40;99.90
48836;DHT22;62581;47.342;7.908;2024-01-16T14:39:43;12.60;99.90
48836;DHT22;62581;47.342;7.908;2024-01-16T14:42:09;12.60;99.70
48836;DHT22;62581;47.342;7.908;2024-01-16T14:44:36;12.70;99.00
48836;DHT22;62581;47.342;7.908;2024-01-16T14:47:04;12.40;99.20
48836;DHT22;62581;47.342;7.908;2024-01-16T14:49:32;12.10;99.90
48836;DHT22;62581;47.342;7.908;2024-01-16T14:52:02;11.90;99.60
48836;DHT22;62581;47.342;7.908;2024-01-16T14:54:29;11.80;99.80
48836;DHT22;62581;47.342;7.908;2024-01-16T14:56:56;10.80;99.60
48836;DHT22;62581;47.342;7.908;2024-01-16T14:59:23;10.10;99.90
48836;DHT22;62581;47.342;7.908;2024-01-16T15:01:49;9.40;99.90
48836;DHT22;62581;47.342;7.908;2024-01-16T15:04:17;8.70;99.90
48836;DHT22;62581;47.342;7.908;2024-01-16T15:06:45;8.10;99.90
48836;DHT22;62581;47.342;7.908;2024-01-16T15:09:12;7.50;99.90
48836;DHT22;62581;47.342;7.908;2024-01-16T15:11:39;7.00;99.90
48836;DHT22;62581;47.342;7.908;2024-01-16T15:14:06;6.60;99.90
48836;DHT22;62581;47.342;7.908;2024-01-16T15:16:33;6.10;99.90
48836;DHT22;62581;47.342;7.908;2024-01-16T15:19:01;5.80;99.90
48836;DHT22;62581;47.342;7.908;2024-01-16T15:21:28;5.30;99.90
48836;DHT22;62581;47.342;7.908;2024-01-16T15:23:56;5.00;99.90
48836;DHT22;62581;47.342;7.908;2024-01-16T15:26:23;4.70;99.90
48836;DHT22;62581;47.342;7.908;2024-01-16T15:28:51;4.50;99.90
48836;DHT22;62581;47.342;7.908;2024-01-16T15:31:18;4.40;99.90
48836;DHT22;62581;47.342;7.908;2024-01-16T15:33:46;4.20;99.90
48836;DHT22;62581;47.342;7.908;2024-01-16T15:36:13;4.10;99.90
48836;DHT22;62581;47.342;7.908;2024-01-16T15:38:40;4.10;99.90
48836;DHT22;62581;47.342;7.908;2024-01-16T15:41:09;3.90;99.90
48836;DHT22;62581;47.342;7.908;2024-01-16T15:43:36;3.70;99.90